Terminal Aerodrome Forecast
Issued by NWS Melbourne, FL

Home | Current Version | Previous Version | Text Only | Print | Product List | Glossary On
Versions: 1 2 3 4 5 6 7 8 9 10 11 12 13 14 15
000
FTUS42 KMLB 242337
TAFVRB
TAF
KVRB 242337Z 2500/2524 15009KT P6SM FEW100 SCT250
     FM251300 15008KT P6SM FEW020 FEW120 SCT250
     FM251700 12012KT P6SM VCSH SCT040 SCT250
     FM252000 12012G18KT P6SM FEW040 SCT250=

USA.gov is the U.S. government's official web portal to all federal, state and local government web resources and services.